Time;durP1;ratioP1;P1;durP2;ratioP2;P2;SDS_P1;SDS_P2;PMS_P1;PMS_P2;Temp;Humidity;BMP_temperature;BMP_pressure;BME280_temperature;BME280_humidity;BME280_pressure;Samples;Min_cycle;Max_cycle;Signal;HPM_P1;HPM_P2
2021/05/13 00:02:06;;;;;;;5.93;1.88;;;;;;;20.02;49.97;100757.16;4989637;28;20165;-40
2021/05/13 00:04:31;;;;;;;4.63;2.00;;;;;;;20.04;49.88;100760.28;5008105;28;20050;-40
2021/05/13 00:06:56;;;;;;;3.30;1.90;;;;;;;20.01;49.94;100753.66;4989710;28;20403;-40
2021/05/13 00:09:22;;;;;;;5.00;1.80;;;;;;;19.99;49.74;100749.75;5007286;28;20038;-40
2021/05/13 00:11:49;;;;;;;2.15;1.60;;;;;;;19.98;49.75;100750.88;4989744;28;20091;-40
2021/05/13 00:14:16;;;;;;;4.78;2.20;;;;;;;19.97;49.81;100758.19;5007191;28;20036;-40
2021/05/13 00:16:42;;;;;;;5.78;1.80;;;;;;;19.98;49.59;100753.56;5007005;28;20041;-40
2021/05/13 00:19:11;;;;;;;3.22;1.55;;;;;;;19.95;49.60;100755.06;5007632;28;20049;-40
2021/05/13 00:21:36;;;;;;;4.68;1.88;;;;;;;19.95;49.48;100756.97;4989388;28;20429;-41
2021/05/13 00:24:02;;;;;;;2.88;1.70;;;;;;;19.94;49.59;100752.72;4989117;28;20120;-42
2021/05/13 00:26:39;;;;;;;3.65;1.60;;;;;;;19.94;49.68;100750.00;5007143;28;20041;-42
2021/05/13 00:29:12;;;;;;;2.35;1.40;;;;;;;19.91;49.67;100756.88;5006921;28;20038;-40
2021/05/13 00:31:38;;;;;;;2.45;1.33;;;;;;;19.92;49.48;100749.56;4973532;28;20453;-40
2021/05/13 00:34:03;;;;;;;4.88;2.08;;;;;;;19.89;49.56;100751.03;5018491;28;20072;-40
2021/05/13 00:36:29;;;;;;;4.15;1.77;;;;;;;19.89;49.53;100744.88;5025512;28;20045;-41
2021/05/13 00:38:54;;;;;;;5.43;2.00;;;;;;;19.86;49.63;100751.72;5024974;28;20037;-40
2021/05/13 00:41:20;;;;;;;2.53;1.83;;;;;;;19.87;49.50;100749.81;5025466;28;20034;-42
2021/05/13 00:43:45;;;;;;;1.98;1.63;;;;;;;19.86;49.49;100749.03;5024867;28;20098;-40
2021/05/13 00:46:11;;;;;;;3.08;1.80;;;;;;;19.85;49.66;100749.38;5026690;28;20391;-39
2021/05/13 00:48:39;;;;;;;2.55;1.70;;;;;;;19.81;49.53;100746.59;5026890;28;20128;-39
2021/05/13 00:51:05;;;;;;;3.50;2.08;;;;;;;19.81;49.45;100746.59;5010565;28;20083;-42
2021/05/13 00:53:30;;;;;;;2.58;1.63;;;;;;;19.81;49.57;100743.13;4998162;28;20057;-41
2021/05/13 00:55:55;;;;;;;4.43;1.70;;;;;;;19.77;49.56;100742.22;4988600;28;20046;-44
2021/05/13 00:58:25;;;;;;;3.92;1.70;;;;;;;19.78;49.43;100743.81;5005275;28;20064;-40
2021/05/13 01:01:05;;;;;;;2.88;1.80;;;;;;;19.78;49.28;100741.13;5005560;28;20060;-41
2021/05/13 01:03:33;;;;;;;4.72;1.73;;;;;;;19.77;49.30;100747.63;4996110;28;20121;-42
2021/05/13 01:05:58;;;;;;;3.35;1.70;;;;;;;19.74;49.35;100742.91;5006050;28;20518;-41
2021/05/13 01:08:24;;;;;;;2.80;1.80;;;;;;;19.74;49.35;100743.72;4990285;28;20042;-41
2021/05/13 01:10:50;;;;;;;3.50;1.52;;;;;;;19.72;49.12;100737.88;4987959;28;20560;-41
2021/05/13 01:13:20;;;;;;;3.35;1.75;;;;;;;19.71;49.33;100732.81;4987405;28;20034;-40
2021/05/13 01:15:51;;;;;;;2.55;1.50;;;;;;;19.70;49.21;100739.38;4985198;28;20066;-41
2021/05/13 01:18:19;;;;;;;3.83;1.70;;;;;;;19.71;49.32;100730.91;4984994;28;20042;-42
2021/05/13 01:20:45;;;;;;;5.57;1.77;;;;;;;19.69;49.13;100730.47;4986221;28;20755;-41
2021/05/13 01:23:13;;;;;;;3.25;1.73;;;;;;;19.68;49.03;100733.50;4986469;28;20130;-43
2021/05/13 01:25:50;;;;;;;2.17;1.58;;;;;;;19.66;49.11;100727.69;4993202;28;20058;-40
2021/05/13 01:28:16;;;;;;;2.05;1.65;;;;;;;19.63;49.07;100731.84;5003674;28;20103;-40
2021/05/13 01:30:45;;;;;;;2.50;1.70;;;;;;;19.65;49.00;100731.50;4988793;28;20041;-43
2021/05/13 01:33:12;;;;;;;4.57;1.90;;;;;;;19.64;48.97;100728.03;5010423;28;20518;-40
2021/05/13 01:35:38;;;;;;;1.95;1.60;;;;;;;19.63;48.95;100723.78;4995456;28;20581;-41
2021/05/13 01:38:04;;;;;;;3.50;2.10;;;;;;;19.62;48.96;100729.53;5004539;28;20492;-41
2021/05/13 01:40:30;;;;;;;3.92;1.63;;;;;;;19.62;48.86;100729.53;4993417;28;20053;-41
2021/05/13 01:42:55;;;;;;;2.47;1.63;;;;;;;19.60;49.20;100723.66;4985880;28;20045;-40
2021/05/13 01:45:20;;;;;;;3.97;1.58;;;;;;;19.60;48.88;100729.84;4986568;28;20050;-41
2021/05/13 01:47:46;;;;;;;3.83;1.75;;;;;;;19.60;48.66;100723.66;4985800;28;20040;-40
2021/05/13 01:50:11;;;;;;;4.38;2.13;;;;;;;19.58;48.83;100724.03;4967119;28;20042;-41
2021/05/13 01:52:36;;;;;;;1.92;1.63;;;;;;;19.57;48.49;100722.44;4967333;28;20074;-41
2021/05/13 01:55:02;;;;;;;4.00;1.83;;;;;;;19.57;48.68;100718.97;4967514;28;20038;-44
2021/05/13 01:57:27;;;;;;;3.17;1.60;;;;;;;19.55;48.59;100727.41;4951199;28;20716;-40
2021/05/13 01:59:52;;;;;;;2.40;1.50;;;;;;;19.53;48.68;100721.59;4951336;28;20048;-41
2021/05/13 02:02:21;;;;;;;5.03;1.50;;;;;;;19.52;48.74;100718.09;4966392;28;20050;-41
2021/05/13 02:04:46;;;;;;;2.10;1.42;;;;;;;19.51;48.93;100713.03;4968506;28;20121;-42
2021/05/13 02:07:11;;;;;;;2.35;1.40;;;;;;;19.50;48.56;100711.47;4966497;28;20030;-41
2021/05/13 02:09:37;;;;;;;1.85;1.48;;;;;;;19.47;48.73;100709.47;4984586;28;20046;-40
2021/05/13 02:12:04;;;;;;;2.83;1.65;;;;;;;19.45;48.78;100715.19;4950455;28;20117;-42
2021/05/13 02:14:30;;;;;;;2.40;1.50;;;;;;;19.46;48.65;100707.91;4985143;28;20046;-43
2021/05/13 02:16:55;;;;;;;1.35;1.25;;;;;;;19.47;48.71;100701.38;4951297;28;20049;-43
2021/05/13 02:19:21;;;;;;;1.30;1.20;;;;;;;19.46;48.63;100711.38;4984502;28;20421;-41
2021/05/13 02:21:46;;;;;;;3.03;1.33;;;;;;;19.45;48.75;100709.03;4985596;28;20046;-40
2021/05/13 02:24:11;;;;;;;3.05;1.50;;;;;;;19.44;48.85;100704.75;4966783;28;20042;-40
2021/05/13 02:26:37;;;;;;;1.88;1.50;;;;;;;19.45;48.69;100712.50;4968752;28;20050;-41
2021/05/13 02:29:02;;;;;;;3.03;1.50;;;;;;;19.43;48.70;100703.19;4985095;28;20041;-44
2021/05/13 02:31:28;;;;;;;1.80;1.40;;;;;;;19.43;48.67;100708.56;4985862;28;20184;-42
2021/05/13 02:33:53;;;;;;;1.63;1.52;;;;;;;19.41;48.65;100705.44;4994730;28;20448;-40
2021/05/13 02:36:18;;;;;;;1.42;1.30;;;;;;;19.41;48.60;100705.44;5002673;28;20040;-40
2021/05/13 02:38:44;;;;;;;2.55;1.60;;;;;;;19.40;48.58;100706.56;5003185;28;20034;-41
2021/05/13 02:41:09;;;;;;;3.05;1.60;;;;;;;19.39;48.46;100699.63;5004081;28;20496;-42
2021/05/13 02:43:34;;;;;;;2.70;1.58;;;;;;;19.38;48.66;100700.75;5002726;28;20046;-41
2021/05/13 02:46:00;;;;;;;1.40;1.30;;;;;;;19.38;48.62;100704.22;5005301;28;20038;-42
2021/05/13 02:48:25;;;;;;;1.70;1.25;;;;;;;19.37;48.61;100704.56;5003662;28;20038;-40
2021/05/13 02:50:51;;;;;;;1.85;1.27;;;;;;;19.35;48.54;100704.88;5004752;28;20087;-41
2021/05/13 02:53:16;;;;;;;1.77;1.40;;;;;;;19.33;48.51;100701.75;5003086;28;20042;-40
2021/05/13 02:55:41;;;;;;;4.20;1.55;;;;;;;19.33;48.58;100704.44;5004399;28;20046;-40
2021/05/13 02:58:07;;;;;;;2.47;1.73;;;;;;;19.32;48.56;100696.69;5003999;28;20042;-40
2021/05/13 03:00:36;;;;;;;2.97;1.40;;;;;;;19.31;48.61;100698.63;5004983;28;20056;-42
2021/05/13 03:03:01;;;;;;;1.85;1.48;;;;;;;19.30;48.54;100699.75;5003156;28;20038;-41
2021/05/13 03:05:27;;;;;;;2.75;1.33;;;;;;;19.30;48.50;100688.19;5004655;28;20050;-41
2021/05/13 03:08:01;;;;;;;3.50;1.40;;;;;;;19.28;48.42;100685.03;5002357;28;20049;-40
2021/05/13 03:13:26;;;;;;;3.92;1.48;;;;;;;19.27;48.54;100680.78;5002303;28;20041;-40
2021/05/13 03:15:51;;;;;;;1.70;1.20;;;;;;;19.26;48.57;100677.28;5005038;28;20128;-40
2021/05/13 03:18:18;;;;;;;2.60;1.58;;;;;;;19.27;48.65;100672.69;4985466;28;20107;-39
2021/05/13 03:20:49;;;;;;;4.53;1.33;;;;;;;19.26;48.48;100673.84;4968265;28;20041;-40
2021/05/13 03:23:15;;;;;;;1.25;1.17;;;;;;;19.25;48.53;100669.56;4985993;28;20059;-40
2021/05/13 03:25:43;;;;;;;3.47;1.40;;;;;;;19.24;48.54;100663.38;5004523;28;20524;-40
2021/05/13 03:28:09;;;;;;;2.30;1.60;;;;;;;19.24;48.33;100667.97;5002194;28;20061;-41
2021/05/13 03:30:41;;;;;;;3.00;1.33;;;;;;;19.23;48.31;100661.06;5004542;28;20521;-42
2021/05/13 03:33:07;;;;;;;5.35;1.33;;;;;;;19.21;48.20;100661.38;4999754;28;20201;-40
2021/05/13 03:35:33;;;;;;;2.45;1.48;;;;;;;19.19;48.42;100658.25;5003610;28;20519;-40
2021/05/13 03:37:59;;;;;;;1.42;1.33;;;;;;;19.18;48.44;100662.06;5018655;28;20091;-41
2021/05/13 03:40:24;;;;;;;4.57;1.48;;;;;;;19.17;48.38;100651.63;5003843;28;20061;-40
2021/05/13 03:42:50;;;;;;;1.58;1.48;;;;;;;19.17;48.50;100652.44;5004291;28;20030;-41
2021/05/13 03:45:15;;;;;;;1.60;1.48;;;;;;;19.16;48.29;100653.53;5003618;28;20038;-41
2021/05/13 03:47:41;;;;;;;1.58;1.42;;;;;;;19.15;48.29;100654.69;5002700;28;20088;-41
2021/05/13 03:50:06;;;;;;;2.80;1.50;;;;;;;19.15;48.41;100653.91;5002677;28;20037;-42
2021/05/13 03:52:32;;;;;;;2.53;1.45;;;;;;;19.13;48.36;100659.63;4983220;28;20053;-44
2021/05/13 03:54:57;;;;;;;1.60;1.17;;;;;;;19.12;48.20;100659.97;5003952;28;20514;-42
2021/05/13 03:57:23;;;;;;;2.72;1.60;;;;;;;19.11;48.38;100645.72;4985571;28;20048;-44
2021/05/13 03:59:49;;;;;;;1.80;1.17;;;;;;;19.09;48.26;100656.06;5001871;28;20100;-42
2021/05/13 04:02:34;;;;;;;1.65;1.38;;;;;;;19.10;48.24;100657.59;5003358;28;20034;-43
2021/05/13 04:05:00;;;;;;;3.42;1.50;;;;;;;19.09;48.25;100656.06;5003859;28;20038;-41
2021/05/13 04:07:29;;;;;;;1.75;1.30;;;;;;;19.08;48.02;100654.47;5002356;28;20173;-41
2021/05/13 04:09:55;;;;;;;1.67;1.40;;;;;;;19.08;48.22;100662.56;5002547;28;20555;-41
2021/05/13 04:12:20;;;;;;;3.30;1.42;;;;;;;19.07;48.38;100663.66;5001702;28;22124;-43
2021/05/13 04:14:46;;;;;;;3.90;1.90;;;;;;;19.06;48.12;100662.13;4986259;28;20029;-43
2021/05/13 04:17:11;;;;;;;1.80;1.30;;;;;;;19.05;48.13;100665.94;5003495;28;20369;-41
2021/05/13 04:19:36;;;;;;;1.40;1.30;;;;;;;19.03;48.18;100662.81;5003950;28;20038;-41
2021/05/13 04:22:02;;;;;;;2.42;1.30;;;;;;;19.04;48.05;100664.38;5001530;28;20042;-41
2021/05/13 04:24:28;;;;;;;1.42;1.30;;;;;;;19.03;48.26;100662.81;5003361;28;20069;-42
2021/05/13 04:26:53;;;;;;;2.17;1.67;;;;;;;19.02;48.07;100663.13;4998120;28;20034;-41
2021/05/13 04:29:18;;;;;;;2.15;1.38;;;;;;;19.02;48.15;100655.03;5001724;28;20030;-41
2021/05/13 04:31:44;;;;;;;2.13;1.58;;;;;;;19.01;48.06;100656.19;5005234;28;20050;-41
2021/05/13 04:34:09;;;;;;;1.75;1.33;;;;;;;19.01;48.19;100658.88;5018661;28;20064;-41
2021/05/13 04:36:34;;;;;;;1.52;1.38;;;;;;;18.99;48.19;100651.13;4993211;28;20045;-40
2021/05/13 04:39:00;;;;;;;1.80;1.52;;;;;;;18.99;47.88;100653.06;4992240;28;20041;-40
2021/05/13 04:41:29;;;;;;;2.90;1.45;;;;;;;18.96;47.87;100651.84;5009209;28;20033;-41
2021/05/13 04:43:55;;;;;;;3.15;1.30;;;;;;;18.95;48.01;100644.88;5008974;28;20053;-40
2021/05/13 04:46:22;;;;;;;1.75;1.50;;;;;;;18.94;47.96;100640.59;4992481;28;20067;-42
2021/05/13 04:51:17;;;;;;;1.10;1.10;;;;;;;18.93;48.04;100630.97;5009596;28;20029;-43
2021/05/13 04:53:43;;;;;;;3.67;1.63;;;;;;;18.93;48.08;100626.34;4976138;28;20508;-40
2021/05/13 04:56:08;;;;;;;1.50;1.40;;;;;;;18.93;47.97;100625.59;5025798;28;20033;-42
2021/05/13 04:58:34;;;;;;;2.15;1.63;;;;;;;18.93;48.00;100622.91;5025773;28;20037;-41
2021/05/13 05:00:59;;;;;;;2.15;1.25;;;;;;;18.92;48.38;100624.03;5004882;28;20051;-40
2021/05/13 05:03:24;;;;;;;1.52;1.42;;;;;;;18.91;47.84;100619.75;5024480;28;20029;-41
2021/05/13 05:05:50;;;;;;;1.40;1.30;;;;;;;18.90;47.97;100621.69;5006004;28;20389;-40
2021/05/13 05:08:15;;;;;;;1.33;1.15;;;;;;;18.89;48.00;100625.47;5024693;28;20030;-41
2021/05/13 05:10:41;;;;;;;1.48;1.33;;;;;;;18.89;48.10;100620.09;4991192;28;20664;-39
2021/05/13 05:13:06;;;;;;;1.52;1.42;;;;;;;18.88;47.97;100618.53;4989712;28;20033;-41
2021/05/13 05:15:31;;;;;;;7.00;1.30;;;;;;;18.89;48.13;100613.94;4989781;28;20397;-39
2021/05/13 05:17:57;;;;;;;1.40;1.30;;;;;;;18.88;48.25;100610.44;5006956;28;20045;-40
2021/05/13 05:20:22;;;;;;;0.88;0.88;;;;;;;18.88;48.27;100613.13;4988507;28;20041;-40
2021/05/13 05:22:47;;;;;;;1.45;1.30;;;;;;;18.88;48.10;100607.75;5005170;28;20512;-41
2021/05/13 05:25:13;;;;;;;1.42;1.33;;;;;;;18.88;48.39;100605.06;5025437;28;20600;-41
2021/05/13 05:27:38;;;;;;;2.65;1.25;;;;;;;18.86;48.35;100603.84;5007780;28;20038;-41
2021/05/13 05:30:05;;;;;;;1.85;1.30;;;;;;;18.86;48.35;100604.63;5006869;28;20030;-39
2021/05/13 05:32:30;;;;;;;1.25;1.23;;;;;;;18.87;48.55;100605.41;5025089;28;20095;-40
2021/05/13 05:34:56;;;;;;;1.48;1.23;;;;;;;18.87;48.51;100605.41;5024754;28;20037;-42
2021/05/13 05:37:21;;;;;;;1.80;1.38;;;;;;;18.87;48.28;100605.41;5006146;28;20056;-39
2021/05/13 05:39:46;;;;;;;1.50;1.40;;;;;;;18.86;48.48;100606.53;5024997;28;20102;-40
2021/05/13 05:42:12;;;;;;;1.15;1.13;;;;;;;18.87;47.94;100605.41;4973093;28;20038;-40
2021/05/13 05:44:37;;;;;;;1.77;1.60;;;;;;;18.88;48.49;100604.28;5023835;28;20048;-42
2021/05/13 05:47:02;;;;;;;3.45;1.40;;;;;;;18.87;48.37;100602.72;5006421;28;20051;-42
2021/05/13 05:49:28;;;;;;;1.70;1.42;;;;;;;18.89;48.35;100606.63;4988245;28;20557;-41
2021/05/13 05:51:53;;;;;;;1.58;1.30;;;;;;;18.90;48.37;100602.03;5005496;28;20051;-42
2021/05/13 05:54:18;;;;;;;1.35;1.25;;;;;;;18.91;48.65;100603.59;5004598;28;20063;-40
2021/05/13 05:56:44;;;;;;;2.47;1.40;;;;;;;18.91;48.72;100598.19;5004832;28;20041;-42
2021/05/13 05:59:09;;;;;;;1.25;1.00;;;;;;;18.91;48.60;100604.38;5021234;28;20095;-41
2021/05/13 06:01:37;;;;;;;1.52;1.42;;;;;;;18.91;48.68;100600.91;5001672;28;20121;-42
2021/05/13 06:04:03;;;;;;;1.90;1.80;;;;;;;18.90;49.03;100596.66;5005116;28;20041;-40
2021/05/13 06:06:28;;;;;;;1.60;1.50;;;;;;;18.90;48.97;100593.97;5002857;28;20041;-42
2021/05/13 06:08:54;;;;;;;5.63;1.60;;;;;;;18.92;49.23;100589.00;5002939;28;20041;-42
2021/05/13 06:11:19;;;;;;;2.00;1.60;;;;;;;18.90;49.05;100583.97;5020426;28;20538;-41
2021/05/13 06:13:45;;;;;;;1.80;1.70;;;;;;;18.91;48.98;100588.22;5004314;28;20047;-40
2021/05/13 06:16:11;;;;;;;2.00;1.50;;;;;;;18.92;49.36;100589.00;4971612;28;20038;-40
2021/05/13 06:18:56;;;;;;;3.58;1.52;;;;;;;18.92;49.20;100587.09;5003958;28;20037;-40
2021/05/13 06:21:22;;;;;;;5.22;1.90;;;;;;;18.92;49.35;100592.50;5022433;28;20403;-39
2021/05/13 06:23:49;;;;;;;2.20;1.92;;;;;;;18.92;49.45;100586.31;5005170;28;20123;-39
2021/05/13 06:26:24;;;;;;;1.85;1.73;;;;;;;18.93;49.70;100587.91;5006596;28;20045;-41
2021/05/13 06:28:50;;;;;;;3.35;2.20;;;;;;;18.93;49.76;100588.66;5005734;28;20168;-41
2021/05/13 06:31:15;;;;;;;4.38;2.08;;;;;;;18.93;49.63;100579.81;5022191;28;20037;-40
2021/05/13 06:33:41;;;;;;;2.42;2.22;;;;;;;18.93;49.86;100585.22;4988051;28;20061;-39
2021/05/13 06:36:06;;;;;;;2.63;2.10;;;;;;;18.94;49.85;100575.97;5004952;28;20042;-40
2021/05/13 06:38:31;;;;;;;2.13;2.00;;;;;;;18.96;49.71;100581.03;5004320;28;20084;-41
2021/05/13 06:40:58;;;;;;;4.30;3.05;;;;;;;18.94;49.99;100578.69;5023057;28;20557;-40
2021/05/13 06:43:23;;;;;;;5.47;2.53;;;;;;;18.95;50.09;100580.25;5022989;28;20495;-40
2021/05/13 06:45:48;;;;;;;2.95;2.55;;;;;;;18.96;50.09;100572.97;5021928;28;20106;-39
2021/05/13 06:48:14;;;;;;;2.72;2.53;;;;;;;18.95;50.03;100577.56;5020777;28;20397;-41
2021/05/13 06:50:39;;;;;;;4.45;2.70;;;;;;;18.95;50.24;100574.88;5021292;28;20043;-40
2021/05/13 06:53:06;;;;;;;3.42;2.60;;;;;;;18.97;50.69;100571.81;5021346;28;20037;-40
2021/05/13 06:55:32;;;;;;;6.45;3.05;;;;;;;18.98;50.75;100578.78;5003841;28;20036;-40
2021/05/13 06:57:57;;;;;;;3.55;3.05;;;;;;;18.99;51.82;100572.28;5004060;28;20041;-41
2021/05/13 07:00:24;;;;;;;4.60;3.13;;;;;;;19.00;51.20;100574.63;5004444;28;20060;-41
2021/05/13 07:02:50;;;;;;;6.88;3.22;;;;;;;18.99;51.48;100564.97;5006324;28;20034;-41
2021/05/13 07:05:15;;;;;;;3.55;3.28;;;;;;;18.99;51.32;100562.25;5023175;28;20132;-40
2021/05/13 07:07:41;;;;;;;5.30;3.17;;;;;;;19.00;51.26;100569.22;5022806;28;20034;-40
2021/05/13 07:10:07;;;;;;;5.03;3.47;;;;;;;19.01;51.59;100568.13;4986531;28;20528;-40
2021/05/13 07:12:32;;;;;;;10.05;3.58;;;;;;;19.01;51.32;100570.00;5004914;28;20523;-40
2021/05/13 07:15:01;;;;;;;4.72;3.22;;;;;;;19.02;51.48;100574.25;4990077;28;20045;-40
2021/05/13 07:17:27;;;;;;;5.15;3.70;;;;;;;19.02;51.24;100569.66;5005182;28;20087;-40
2021/05/13 07:19:52;;;;;;;5.25;3.58;;;;;;;19.03;51.45;100579.31;5023421;28;20041;-40
2021/05/13 07:22:18;;;;;;;3.72;3.40;;;;;;;19.05;51.58;100570.88;5003584;28;20525;-40
2021/05/13 07:24:44;;;;;;;4.60;4.20;;;;;;;19.04;51.43;100575.50;5003859;28;20041;-39
2021/05/13 07:27:09;;;;;;;4.63;4.22;;;;;;;19.06;53.17;100569.75;5002644;28;20049;-41
2021/05/13 07:29:35;;;;;;;9.38;4.53;;;;;;;19.07;52.98;100574.03;5004235;28;20033;-40
2021/05/13 07:32:01;;;;;;;4.93;4.40;;;;;;;19.08;53.53;100576.38;4991263;28;20057;-40
2021/05/13 07:34:26;;;;;;;4.95;4.38;;;;;;;19.09;53.21;100577.94;5019404;28;20076;-40
2021/05/13 07:36:51;;;;;;;5.60;4.55;;;;;;;19.10;52.93;100573.34;5003103;28;20041;-39
2021/05/13 07:39:17;;;;;;;4.95;4.43;;;;;;;19.08;53.16;100576.38;4986249;28;20049;-40
2021/05/13 07:41:42;;;;;;;7.75;4.20;;;;;;;19.10;52.67;100573.34;5002366;28;20523;-42
2021/05/13 07:44:08;;;;;;;4.97;4.32;;;;;;;19.11;52.38;100572.19;5019776;28;20079;-43
2021/05/13 07:46:37;;;;;;;4.57;4.03;;;;;;;19.10;52.50;100568.72;5003123;28;20064;-40
2021/05/13 07:49:03;;;;;;;5.65;4.07;;;;;;;19.09;52.43;100561.78;5004003;28;20504;-42
2021/05/13 07:51:29;;;;;;;5.15;3.80;;;;;;;19.11;51.76;100573.00;4985438;28;20033;-40
2021/05/13 07:53:54;;;;;;;5.60;4.47;;;;;;;19.10;52.09;100559.88;4987552;28;20048;-41
2021/05/13 07:56:20;;;;;;;4.60;4.00;;;;;;;19.12;52.09;100563.00;4986613;28;20526;-40
2021/05/13 07:58:45;;;;;;;4.30;3.90;;;;;;;19.11;51.96;100562.22;5002138;28;20534;-41
2021/05/13 08:01:10;;;;;;;5.82;3.83;;;;;;;19.12;51.84;100561.09;5002915;28;20049;-40
2021/05/13 08:03:36;;;;;;;5.18;4.25;;;;;;;19.13;51.98;100562.66;5020823;28;20046;-42
2021/05/13 08:06:01;;;;;;;5.90;4.15;;;;;;;19.14;52.18;100560.75;5020699;28;20043;-40
2021/05/13 08:08:27;;;;;;;4.20;3.80;;;;;;;19.14;52.13;100560.75;5025371;28;20055;-40
2021/05/13 08:10:52;;;;;;;4.80;4.43;;;;;;;19.16;52.38;100569.25;4990210;28;20167;-42
2021/05/13 08:13:17;;;;;;;4.28;3.97;;;;;;;19.16;52.29;100559.25;5008221;28;20079;-41
2021/05/13 08:15:43;;;;;;;6.35;4.65;;;;;;;19.18;52.31;100556.25;5003435;28;20038;-41
2021/05/13 08:18:08;;;;;;;5.05;4.20;;;;;;;19.19;52.49;100557.78;4990398;28;20045;-42
2021/05/13 08:20:34;;;;;;;5.82;4.30;;;;;;;19.19;52.41;100563.97;5003433;28;20045;-41
2021/05/13 08:22:59;;;;;;;4.60;4.20;;;;;;;19.20;52.40;100562.06;5005948;28;20065;-40
2021/05/13 08:25:25;;;;;;;4.88;4.45;;;;;;;19.21;52.35;100558.22;4989662;28;20732;-40
2021/05/13 08:27:51;;;;;;;4.07;3.72;;;;;;;19.22;52.54;100552.50;5025570;28;20041;-41
2021/05/13 08:30:16;;;;;;;6.32;4.18;;;;;;;19.23;52.37;100559.47;5005441;28;20559;-41
2021/05/13 08:32:42;;;;;;;7.32;4.10;;;;;;;19.24;52.66;100555.63;5007140;28;20758;-40
2021/05/13 08:35:08;;;;;;;4.28;3.97;;;;;;;19.24;52.82;100561.00;5016679;28;20041;-40
2021/05/13 08:37:33;;;;;;;5.05;4.65;;;;;;;19.26;52.77;100558.00;5001587;28;20095;-40
2021/05/13 08:39:59;;;;;;;4.43;4.03;;;;;;;19.24;52.23;100561.00;5025221;28;20051;-40
2021/05/13 08:42:24;;;;;;;4.63;4.10;;;;;;;19.23;52.94;100559.47;4988851;28;20052;-40
2021/05/13 08:44:49;;;;;;;5.15;4.68;;;;;;;19.24;52.99;100563.72;4974372;28;20038;-41
2021/05/13 08:47:15;;;;;;;4.50;4.18;;;;;;;19.23;53.17;100554.06;5006535;28;20045;-41
2021/05/13 08:49:40;;;;;;;5.15;4.65;;;;;;;19.23;53.45;100554.06;4990604;28;20046;-40
2021/05/13 08:52:12;;;;;;;4.30;4.00;;;;;;;19.23;53.04;100548.69;5022583;28;20037;-40
2021/05/13 08:54:57;;;;;;;6.63;4.40;;;;;;;19.25;52.98;100548.31;5024783;28;20495;-40
2021/05/13 08:57:22;;;;;;;;;;;;;;;19.25;53.08;100551.81;4990086;28;20057;-41
2021/05/13 08:59:48;;;;;;;4.90;4.50;;;;;;;19.26;52.70;100547.97;5006284;28;19975;-41
2021/05/13 09:02:13;;;;;;;4.10;3.78;;;;;;;19.26;52.70;100542.59;4989872;28;20048;-40
2021/05/13 09:04:40;;;;;;;4.43;4.05;;;;;;;19.27;52.54;100546.06;4993723;28;20053;-40
2021/05/13 09:07:20;;;;;;;4.45;4.05;;;;;;;19.28;52.47;100544.94;5013377;28;20025;-41
2021/05/13 09:09:56;;;;;;;4.75;4.22;;;;;;;19.29;52.29;100543.81;5022627;28;20033;-39
2021/05/13 09:12:21;;;;;;;4.57;4.18;;;;;;;19.29;52.15;100543.81;5005511;28;20041;-41
2021/05/13 09:14:58;;;;;;;4.30;4.00;;;;;;;19.29;52.39;100541.88;5007659;28;20344;-42
2021/05/13 09:17:24;;;;;;;7.28;4.07;;;;;;;19.30;52.39;100542.69;5006377;28;20565;-40
2021/05/13 09:19:50;;;;;;;6.93;4.10;;;;;;;19.30;52.15;100540.78;5003159;28;20605;-40
2021/05/13 09:22:20;;;;;;;5.10;4.40;;;;;;;19.31;52.18;100538.88;5023221;28;20045;-40
2021/05/13 09:24:48;;;;;;;4.43;3.80;;;;;;;19.30;52.12;100537.28;5007017;28;20451;-40
2021/05/13 09:27:42;;;;;;;7.45;3.78;;;;;;;19.30;51.79;100537.28;5022607;28;20030;-40
2021/05/13 09:30:16;;;;;;;5.10;3.60;;;;;;;19.30;51.82;100535.38;5023953;28;20059;-40
2021/05/13 09:32:43;;;;;;;4.03;3.63;;;;;;;19.31;51.68;100538.88;5007496;28;20122;-40
2021/05/13 09:35:11;;;;;;;15.60;4.18;;;;;;;19.31;51.81;100534.28;5022544;28;20137;-41
2021/05/13 09:37:37;;;;;;;3.92;3.60;;;;;;;19.30;51.60;100532.69;5006084;28;20072;-40
2021/05/13 09:40:03;;;;;;;3.92;3.47;;;;;;;19.32;51.66;100535.81;5005346;28;20068;-39
2021/05/13 09:42:28;;;;;;;4.28;3.83;;;;;;;19.34;51.66;100527.41;4995164;28;20049;-39
2021/05/13 09:44:53;;;;;;;5.30;3.60;;;;;;;19.33;51.52;100529.31;5006266;28;20049;-40
2021/05/13 09:47:26;;;;;;;4.03;3.47;;;;;;;19.33;51.35;100534.69;5023013;28;20843;-39
2021/05/13 09:49:58;;;;;;;3.15;2.95;;;;;;;19.35;51.42;100531.63;5022162;28;20113;-38
2021/05/13 09:52:50;;;;;;;6.35;4.05;;;;;;;19.34;51.35;100522.78;5018270;28;20582;-39
2021/05/13 09:55:28;;;;;;;5.03;3.42;;;;;;;19.35;51.39;100518.16;4999479;28;20091;-41
2021/05/13 09:58:07;;;;;;;6.20;3.42;;;;;;;19.35;51.41;100518.16;5004482;28;20037;-39
2021/05/13 10:00:35;;;;;;;3.53;3.00;;;;;;;19.38;51.10;100520.19;5004406;28;20042;-39
2021/05/13 10:03:01;;;;;;;4.13;2.95;;;;;;;19.37;51.17;100516.69;5022902;28;20129;-39
2021/05/13 10:05:26;;;;;;;5.63;3.08;;;;;;;19.38;51.09;100521.00;5004439;28;20063;-39
2021/05/13 10:07:52;;;;;;;7.28;3.30;;;;;;;19.37;50.97;100513.22;4985852;28;20043;-41
2021/05/13 10:10:17;;;;;;;5.13;2.90;;;;;;;19.37;50.93;100513.22;5014221;28;20028;-40
2021/05/13 10:12:43;;;;;;;2.97;2.63;;;;;;;19.40;50.92;100518.72;5004175;28;20156;-39
2021/05/13 10:15:08;;;;;;;2.90;2.70;;;;;;;19.40;50.89;100516.03;5004173;28;20051;-40
2021/05/13 10:17:36;;;;;;;2.72;2.53;;;;;;;19.40;50.81;100521.41;4987612;28;20038;-42
2021/05/13 10:20:01;;;;;;;5.43;2.92;;;;;;;19.44;50.70;100513.44;4980706;28;20041;-40
2021/05/13 10:22:26;;;;;;;3.67;2.92;;;;;;;19.44;50.53;100514.22;4988002;28;20083;-40
2021/05/13 10:25:43;;;;;;;4.22;2.90;;;;;;;19.44;50.54;100510.72;4987803;28;20087;-40
2021/05/13 10:28:11;;;;;;;7.65;3.05;;;;;;;19.44;50.39;100514.22;4947566;28;20044;-41
2021/05/13 10:30:37;;;;;;;4.72;2.70;;;;;;;19.46;50.27;100511.16;4969005;28;20048;-41
2021/05/13 10:33:05;;;;;;;4.53;3.00;;;;;;;19.47;50.10;100499.25;4984108;28;20034;-40
2021/05/13 10:35:30;;;;;;;4.07;2.97;;;;;;;19.47;50.17;100491.97;4995340;28;20527;-40
2021/05/13 10:37:57;;;;;;;4.35;2.47;;;;;;;19.49;50.45;100488.91;4993651;28;20042;-42
2021/05/13 10:40:40;;;;;;;5.78;3.03;;;;;;;19.50;50.56;100488.56;4978896;28;20112;-42
2021/05/13 10:43:06;;;;;;;5.72;2.90;;;;;;;19.47;50.51;100486.56;5002700;28;20038;-41
2021/05/13 10:45:39;;;;;;;3.70;2.60;;;;;;;19.46;50.06;100489.59;5000629;28;20029;-40
2021/05/13 10:48:26;;;;;;;5.57;2.65;;;;;;;19.48;50.13;100485.41;4995874;28;20037;-41
2021/05/13 10:50:56;;;;;;;5.07;3.22;;;;;;;19.49;49.70;100491.59;5012295;28;20060;-40
2021/05/13 10:53:45;;;;;;;7.82;3.00;;;;;;;19.49;49.97;100492.38;5012622;28;20137;-42
2021/05/13 10:56:28;;;;;;;7.10;2.90;;;;;;;19.49;50.01;100484.31;5016001;28;20034;-41
2021/05/13 10:59:01;;;;;;;6.70;2.78;;;;;;;19.50;49.98;100480.47;5007188;28;20141;-41
2021/05/13 11:01:46;;;;;;;4.68;2.70;;;;;;;19.51;49.80;100483.94;5012413;28;20129;-41
2021/05/13 11:04:21;;;;;;;5.35;3.10;;;;;;;19.52;49.49;100482.81;5012332;28;20687;-41
2021/05/13 11:06:49;;;;;;;;;;;;;;;19.53;49.57;100479.00;5011442;28;20070;-42
2021/05/13 11:09:40;;;;;;;4.63;2.33;;;;;;;19.56;49.33;100480.22;5012159;28;19928;-41
2021/05/13 11:12:13;;;;;;;4.97;2.45;;;;;;;19.55;48.92;100470.56;5017984;28;20034;-41
2021/05/13 11:14:59;;;;;;;3.80;2.50;;;;;;;19.57;48.75;100471.75;5015648;28;20508;-41
2021/05/13 11:20:40;;;;;;;3.75;2.28;;;;;;;19.57;48.92;100465.59;5012846;28;20069;-41
2021/05/13 11:23:06;;;;;;;4.03;2.58;;;;;;;19.59;48.99;100463.34;4981951;28;20061;-41
2021/05/13 11:25:41;;;;;;;7.25;2.40;;;;;;;19.61;48.97;100459.16;5009427;28;20034;-42
2021/05/13 11:28:17;;;;;;;3.83;2.33;;;;;;;19.65;49.02;100461.91;5012949;28;20049;-43
2021/05/13 11:30:42;;;;;;;3.40;2.35;;;;;;;19.66;48.95;100461.59;5016126;28;20034;-44
2021/05/13 11:33:10;;;;;;;3.60;1.85;;;;;;;19.68;49.06;100458.53;5014996;28;20612;-42
2021/05/13 11:35:37;;;;;;;4.78;2.30;;;;;;;19.70;49.12;100461.66;5024221;28;20511;-41
2021/05/13 11:38:13;;;;;;;2.95;2.35;;;;;;;19.72;49.00;100462.09;5010224;28;20140;-41